<?xml version="1.0" encoding="UTF-8"?>
<gpx xmlns="http://www.topografix.com/GPX/1/1" xmlns:xsi="http://www.w3.org/2001/XMLSchema-instance" version="1.1" xsi:schemaLocation="http://www.topografix.com/GPX/1/1 http://www.topografix.com/GPX/1/1/gpx.xsd">
  <metadata>
    <name>Independence Triathlon 2022 - Sprint Triathlon</name>
  </metadata>
  <trk>
    <name>Independence Triathlon 2022 - Sprint Triathlon</name>
    <trkseg>
      <trkpt lat="40.476917" lon="-75.207334">
        <ele>120.704823</ele>
        <time>2024-05-19T07:46:00.000Z</time>
      </trkpt>
      <trkpt lat="40.477027" lon="-75.206773">
        <ele>120.704821</ele>
        <time>2024-05-19T07:46:05.000Z</time>
      </trkpt>
      <trkpt lat="40.47703" lon="-75.206605">
        <ele>120.704812</ele>
        <time>2024-05-19T07:46:06.000Z</time>
      </trkpt>
      <trkpt lat="40.47721" lon="-75.206218">
        <ele>120.72944</ele>
        <time>2024-05-19T07:46:10.000Z</time>
      </trkpt>
      <trkpt lat="40.478599" lon="-75.205382">
        <ele>124.649914</ele>
        <time>2024-05-19T07:46:27.000Z</time>
      </trkpt>
      <trkpt lat="40.479336" lon="-75.206147">
        <ele>125.72155</ele>
        <time>2024-05-19T07:46:37.000Z</time>
      </trkpt>
      <trkpt lat="40.478356" lon="-75.208161">
        <ele>125.868548</ele>
        <time>2024-05-19T07:46:57.000Z</time>
      </trkpt>
      <trkpt lat="40.477874" lon="-75.209279">
        <ele>125.103592</ele>
        <time>2024-05-19T07:47:08.000Z</time>
      </trkpt>
      <trkpt lat="40.47733" lon="-75.210853">
        <ele>125.333061</ele>
        <time>2024-05-19T07:47:23.000Z</time>
      </trkpt>
      <trkpt lat="40.476887" lon="-75.212397">
        <ele>127.368182</ele>
        <time>2024-05-19T07:47:37.000Z</time>
      </trkpt>
      <trkpt lat="40.476726" lon="-75.213171">
        <ele>129.147568</ele>
        <time>2024-05-19T07:47:44.000Z</time>
      </trkpt>
      <trkpt lat="40.476378" lon="-75.214772">
        <ele>131.440785</ele>
        <time>2024-05-19T07:47:58.000Z</time>
      </trkpt>
      <trkpt lat="40.476126" lon="-75.216657">
        <ele>132.310655</ele>
        <time>2024-05-19T07:48:14.000Z</time>
      </trkpt>
      <trkpt lat="40.475993" lon="-75.218507">
        <ele>131.488699</ele>
        <time>2024-05-19T07:48:30.000Z</time>
      </trkpt>
      <trkpt lat="40.47595" lon="-75.219674">
        <ele>134.204639</ele>
        <time>2024-05-19T07:48:40.000Z</time>
      </trkpt>
      <trkpt lat="40.475981" lon="-75.22285">
        <ele>142.89422</ele>
        <time>2024-05-19T07:49:07.000Z</time>
      </trkpt>
      <trkpt lat="40.475826" lon="-75.224856">
        <ele>144.793738</ele>
        <time>2024-05-19T07:49:24.000Z</time>
      </trkpt>
      <trkpt lat="40.475578" lon="-75.226351">
        <ele>146.644993</ele>
        <time>2024-05-19T07:49:37.000Z</time>
      </trkpt>
      <trkpt lat="40.475476" lon="-75.226776">
        <ele>147.477283</ele>
        <time>2024-05-19T07:49:41.000Z</time>
      </trkpt>
      <trkpt lat="40.474897" lon="-75.228586">
        <ele>152.54797</ele>
        <time>2024-05-19T07:49:58.000Z</time>
      </trkpt>
      <trkpt lat="40.474185" lon="-75.230219">
        <ele>158.847581</ele>
        <time>2024-05-19T07:50:14.000Z</time>
      </trkpt>
      <trkpt lat="40.473753" lon="-75.23098">
        <ele>161.487412</ele>
        <time>2024-05-19T07:50:22.000Z</time>
      </trkpt>
      <trkpt lat="40.473202" lon="-75.231809">
        <ele>164.331433</ele>
        <time>2024-05-19T07:50:31.000Z</time>
      </trkpt>
      <trkpt lat="40.472523" lon="-75.232699">
        <ele>164.568022</ele>
        <time>2024-05-19T07:50:42.000Z</time>
      </trkpt>
      <trkpt lat="40.471131" lon="-75.234191">
        <ele>163.610681</ele>
        <time>2024-05-19T07:51:02.000Z</time>
      </trkpt>
      <trkpt lat="40.466305" lon="-75.239295">
        <ele>156.799061</ele>
        <time>2024-05-19T07:52:11.000Z</time>
      </trkpt>
      <trkpt lat="40.464" lon="-75.241708">
        <ele>157.052488</ele>
        <time>2024-05-19T07:52:44.000Z</time>
      </trkpt>
      <trkpt lat="40.463862" lon="-75.241867">
        <ele>157.091347</ele>
        <time>2024-05-19T07:52:46.000Z</time>
      </trkpt>
      <trkpt lat="40.463763" lon="-75.241966">
        <ele>157.119809</ele>
        <time>2024-05-19T07:52:47.000Z</time>
      </trkpt>
      <trkpt lat="40.463561" lon="-75.24219">
        <ele>157.17715</ele>
        <time>2024-05-19T07:52:50.000Z</time>
      </trkpt>
      <trkpt lat="40.463372" lon="-75.242389">
        <ele>157.165618</ele>
        <time>2024-05-19T07:52:53.000Z</time>
      </trkpt>
      <trkpt lat="40.463154" lon="-75.242612">
        <ele>157.119067</ele>
        <time>2024-05-19T07:52:56.000Z</time>
      </trkpt>
      <trkpt lat="40.462902" lon="-75.242868">
        <ele>157.0604</ele>
        <time>2024-05-19T07:53:00.000Z</time>
      </trkpt>
      <trkpt lat="40.462886" lon="-75.242887">
        <ele>157.056833</ele>
        <time>2024-05-19T07:53:00.000Z</time>
      </trkpt>
      <trkpt lat="40.461635" lon="-75.244106">
        <ele>155.697589</ele>
        <time>2024-05-19T07:53:17.000Z</time>
      </trkpt>
      <trkpt lat="40.461528" lon="-75.244196">
        <ele>155.431113</ele>
        <time>2024-05-19T07:53:18.000Z</time>
      </trkpt>
      <trkpt lat="40.460375" lon="-75.245199">
        <ele>151.846473</ele>
        <time>2024-05-19T07:53:33.000Z</time>
      </trkpt>
      <trkpt lat="40.458038" lon="-75.247106">
        <ele>142.176628</ele>
        <time>2024-05-19T07:54:04.000Z</time>
      </trkpt>
      <trkpt lat="40.457651" lon="-75.247408">
        <ele>141.116192</ele>
        <time>2024-05-19T07:54:09.000Z</time>
      </trkpt>
      <trkpt lat="40.452613" lon="-75.251577">
        <ele>164.450655</ele>
        <time>2024-05-19T07:55:15.000Z</time>
      </trkpt>
      <trkpt lat="40.450773" lon="-75.25311">
        <ele>166.465916</ele>
        <time>2024-05-19T07:55:39.000Z</time>
      </trkpt>
      <trkpt lat="40.449067" lon="-75.254343">
        <ele>165.433436</ele>
        <time>2024-05-19T07:56:01.000Z</time>
      </trkpt>
      <trkpt lat="40.448964" lon="-75.254405">
        <ele>165.340357</ele>
        <time>2024-05-19T07:56:02.000Z</time>
      </trkpt>
      <trkpt lat="40.448347" lon="-75.254818">
        <ele>164.759594</ele>
        <time>2024-05-19T07:56:10.000Z</time>
      </trkpt>
      <trkpt lat="40.446509" lon="-75.256057">
        <ele>163.73365</ele>
        <time>2024-05-19T07:56:33.000Z</time>
      </trkpt>
      <trkpt lat="40.446052" lon="-75.256354">
        <ele>163.98575</ele>
        <time>2024-05-19T07:56:39.000Z</time>
      </trkpt>
      <trkpt lat="40.445606" lon="-75.256639">
        <ele>164.224779</ele>
        <time>2024-05-19T07:56:45.000Z</time>
      </trkpt>
      <trkpt lat="40.444821" lon="-75.257181">
        <ele>164.99419</ele>
        <time>2024-05-19T07:56:55.000Z</time>
      </trkpt>
      <trkpt lat="40.443901" lon="-75.2578">
        <ele>166.688475</ele>
        <time>2024-05-19T07:57:06.000Z</time>
      </trkpt>
      <trkpt lat="40.443041" lon="-75.258452">
        <ele>167.274421</ele>
        <time>2024-05-19T07:57:17.000Z</time>
      </trkpt>
      <trkpt lat="40.442698" lon="-75.258756">
        <ele>167.160953</ele>
        <time>2024-05-19T07:57:22.000Z</time>
      </trkpt>
      <trkpt lat="40.442422" lon="-75.258988">
        <ele>167.065491</ele>
        <time>2024-05-19T07:57:26.000Z</time>
      </trkpt>
      <trkpt lat="40.442291" lon="-75.259115">
        <ele>167.023063</ele>
        <time>2024-05-19T07:57:28.000Z</time>
      </trkpt>
      <trkpt lat="40.441104" lon="-75.26019">
        <ele>161.366732</ele>
        <time>2024-05-19T07:57:44.000Z</time>
      </trkpt>
      <trkpt lat="40.437944" lon="-75.263196">
        <ele>133.281289</ele>
        <time>2024-05-19T07:58:27.000Z</time>
      </trkpt>
      <trkpt lat="40.436297" lon="-75.264688">
        <ele>124.057954</ele>
        <time>2024-05-19T07:58:49.000Z</time>
      </trkpt>
      <trkpt lat="40.435985" lon="-75.264905">
        <ele>123.649765</ele>
        <time>2024-05-19T07:58:53.000Z</time>
      </trkpt>
      <trkpt lat="40.43629" lon="-75.264686">
        <ele>124.739837</ele>
        <time>2024-05-19T07:58:57.000Z</time>
      </trkpt>
      <trkpt lat="40.437943" lon="-75.263187">
        <ele>133.922026</ele>
        <time>2024-05-19T07:59:19.000Z</time>
      </trkpt>
      <trkpt lat="40.44111" lon="-75.260201">
        <ele>161.393656</ele>
        <time>2024-05-19T08:00:02.000Z</time>
      </trkpt>
      <trkpt lat="40.442293" lon="-75.259116">
        <ele>166.736247</ele>
        <time>2024-05-19T08:00:18.000Z</time>
      </trkpt>
      <trkpt lat="40.442408" lon="-75.258993">
        <ele>166.87245</ele>
        <time>2024-05-19T08:00:20.000Z</time>
      </trkpt>
      <trkpt lat="40.442689" lon="-75.258746">
        <ele>167.178796</ele>
        <time>2024-05-19T08:00:24.000Z</time>
      </trkpt>
      <trkpt lat="40.443032" lon="-75.258468">
        <ele>167.543027</ele>
        <time>2024-05-19T08:00:28.000Z</time>
      </trkpt>
      <trkpt lat="40.443889" lon="-75.257797">
        <ele>166.612252</ele>
        <time>2024-05-19T08:00:39.000Z</time>
      </trkpt>
      <trkpt lat="40.444826" lon="-75.257165">
        <ele>164.949717</ele>
        <time>2024-05-19T08:00:51.000Z</time>
      </trkpt>
      <trkpt lat="40.445608" lon="-75.256655">
        <ele>164.266221</ele>
        <time>2024-05-19T08:01:01.000Z</time>
      </trkpt>
      <trkpt lat="40.446054" lon="-75.256371">
        <ele>163.900227</ele>
        <time>2024-05-19T08:01:07.000Z</time>
      </trkpt>
      <trkpt lat="40.446503" lon="-75.25607">
        <ele>163.588782</ele>
        <time>2024-05-19T08:01:13.000Z</time>
      </trkpt>
      <trkpt lat="40.448353" lon="-75.254829">
        <ele>164.784459</ele>
        <time>2024-05-19T08:01:36.000Z</time>
      </trkpt>
      <trkpt lat="40.44897" lon="-75.254411">
        <ele>165.348602</ele>
        <time>2024-05-19T08:01:44.000Z</time>
      </trkpt>
      <trkpt lat="40.449075" lon="-75.254356">
        <ele>165.439014</ele>
        <time>2024-05-19T08:01:45.000Z</time>
      </trkpt>
      <trkpt lat="40.45077" lon="-75.253099">
        <ele>166.535271</ele>
        <time>2024-05-19T08:02:07.000Z</time>
      </trkpt>
      <trkpt lat="40.452618" lon="-75.251579">
        <ele>164.818489</ele>
        <time>2024-05-19T08:02:31.000Z</time>
      </trkpt>
      <trkpt lat="40.457646" lon="-75.247408">
        <ele>141.988465</ele>
        <time>2024-05-19T08:03:37.000Z</time>
      </trkpt>
      <trkpt lat="40.458025" lon="-75.247111">
        <ele>142.563312</ele>
        <time>2024-05-19T08:03:42.000Z</time>
      </trkpt>
      <trkpt lat="40.460383" lon="-75.2452">
        <ele>151.965739</ele>
        <time>2024-05-19T08:04:13.000Z</time>
      </trkpt>
      <trkpt lat="40.461533" lon="-75.244202">
        <ele>155.592124</ele>
        <time>2024-05-19T08:04:28.000Z</time>
      </trkpt>
      <trkpt lat="40.461629" lon="-75.244104">
        <ele>155.908771</ele>
        <time>2024-05-19T08:04:29.000Z</time>
      </trkpt>
      <trkpt lat="40.462884" lon="-75.24288">
        <ele>157.05758</ele>
        <time>2024-05-19T08:04:46.000Z</time>
      </trkpt>
      <trkpt lat="40.462905" lon="-75.242871">
        <ele>157.064975</ele>
        <time>2024-05-19T08:04:46.000Z</time>
      </trkpt>
      <trkpt lat="40.463162" lon="-75.242595">
        <ele>157.186865</ele>
        <time>2024-05-19T08:04:50.000Z</time>
      </trkpt>
      <trkpt lat="40.463375" lon="-75.242389">
        <ele>157.21725</ele>
        <time>2024-05-19T08:04:53.000Z</time>
      </trkpt>
      <trkpt lat="40.463553" lon="-75.242183">
        <ele>157.163575</ele>
        <time>2024-05-19T08:04:56.000Z</time>
      </trkpt>
      <trkpt lat="40.463759" lon="-75.241961">
        <ele>157.106337</ele>
        <time>2024-05-19T08:04:59.000Z</time>
      </trkpt>
      <trkpt lat="40.463874" lon="-75.241856">
        <ele>157.077945</ele>
        <time>2024-05-19T08:05:01.000Z</time>
      </trkpt>
      <trkpt lat="40.464017" lon="-75.241702">
        <ele>157.039176</ele>
        <time>2024-05-19T08:05:03.000Z</time>
      </trkpt>
      <trkpt lat="40.466301" lon="-75.239298">
        <ele>156.976312</ele>
        <time>2024-05-19T08:05:36.000Z</time>
      </trkpt>
      <trkpt lat="40.471126" lon="-75.234186">
        <ele>163.613184</ele>
        <time>2024-05-19T08:06:45.000Z</time>
      </trkpt>
      <trkpt lat="40.472523" lon="-75.232695">
        <ele>164.664219</ele>
        <time>2024-05-19T08:07:05.000Z</time>
      </trkpt>
      <trkpt lat="40.473214" lon="-75.231815">
        <ele>164.052064</ele>
        <time>2024-05-19T08:07:16.000Z</time>
      </trkpt>
      <trkpt lat="40.473739" lon="-75.230984">
        <ele>161.441526</ele>
        <time>2024-05-19T08:07:25.000Z</time>
      </trkpt>
      <trkpt lat="40.474179" lon="-75.230224">
        <ele>159.125505</ele>
        <time>2024-05-19T08:07:33.000Z</time>
      </trkpt>
      <trkpt lat="40.474902" lon="-75.228584">
        <ele>152.478244</ele>
        <time>2024-05-19T08:07:49.000Z</time>
      </trkpt>
      <trkpt lat="40.475473" lon="-75.226769">
        <ele>147.390286</ele>
        <time>2024-05-19T08:08:06.000Z</time>
      </trkpt>
      <trkpt lat="40.475583" lon="-75.226345">
        <ele>146.383029</ele>
        <time>2024-05-19T08:08:10.000Z</time>
      </trkpt>
      <trkpt lat="40.475826" lon="-75.224871">
        <ele>144.954563</ele>
        <time>2024-05-19T08:08:23.000Z</time>
      </trkpt>
      <trkpt lat="40.475988" lon="-75.222852">
        <ele>142.522367</ele>
        <time>2024-05-19T08:08:40.000Z</time>
      </trkpt>
      <trkpt lat="40.475966" lon="-75.219672">
        <ele>133.986779</ele>
        <time>2024-05-19T08:09:07.000Z</time>
      </trkpt>
      <trkpt lat="40.475983" lon="-75.218507">
        <ele>131.813946</ele>
        <time>2024-05-19T08:09:17.000Z</time>
      </trkpt>
      <trkpt lat="40.476131" lon="-75.216648">
        <ele>132.302321</ele>
        <time>2024-05-19T08:09:33.000Z</time>
      </trkpt>
      <trkpt lat="40.476391" lon="-75.21478">
        <ele>131.654122</ele>
        <time>2024-05-19T08:09:49.000Z</time>
      </trkpt>
      <trkpt lat="40.476718" lon="-75.213159">
        <ele>129.027037</ele>
        <time>2024-05-19T08:10:03.000Z</time>
      </trkpt>
      <trkpt lat="40.476898" lon="-75.212386">
        <ele>127.205697</ele>
        <time>2024-05-19T08:10:10.000Z</time>
      </trkpt>
      <trkpt lat="40.477328" lon="-75.21084">
        <ele>125.452612</ele>
        <time>2024-05-19T08:10:24.000Z</time>
      </trkpt>
      <trkpt lat="40.477887" lon="-75.209293">
        <ele>125.105255</ele>
        <time>2024-05-19T08:10:38.000Z</time>
      </trkpt>
      <trkpt lat="40.478358" lon="-75.208151">
        <ele>125.943939</ele>
        <time>2024-05-19T08:10:49.000Z</time>
      </trkpt>
      <trkpt lat="40.479343" lon="-75.206146">
        <ele>126.919398</ele>
        <time>2024-05-19T08:11:09.000Z</time>
      </trkpt>
      <trkpt lat="40.479989" lon="-75.205026">
        <ele>127.40816</ele>
        <time>2024-05-19T08:11:21.000Z</time>
      </trkpt>
      <trkpt lat="40.480616" lon="-75.204078">
        <ele>127.85626</ele>
        <time>2024-05-19T08:11:32.000Z</time>
      </trkpt>
      <trkpt lat="40.481617" lon="-75.202759">
        <ele>127.967319</ele>
        <time>2024-05-19T08:11:48.000Z</time>
      </trkpt>
      <trkpt lat="40.482491" lon="-75.201746">
        <ele>127.678263</ele>
        <time>2024-05-19T08:12:01.000Z</time>
      </trkpt>
      <trkpt lat="40.483367" lon="-75.200759">
        <ele>127.092798</ele>
        <time>2024-05-19T08:12:14.000Z</time>
      </trkpt>
      <trkpt lat="40.484137" lon="-75.19988">
        <ele>127.433603</ele>
        <time>2024-05-19T08:12:25.000Z</time>
      </trkpt>
      <trkpt lat="40.486395" lon="-75.197355">
        <ele>128.886634</ele>
        <time>2024-05-19T08:12:58.000Z</time>
      </trkpt>
      <trkpt lat="40.488677" lon="-75.195076">
        <ele>127.469427</ele>
        <time>2024-05-19T08:13:30.000Z</time>
      </trkpt>
      <trkpt lat="40.489592" lon="-75.194112">
        <ele>127.25071</ele>
        <time>2024-05-19T08:13:43.000Z</time>
      </trkpt>
      <trkpt lat="40.489553" lon="-75.194061">
        <ele>127.252625</ele>
        <time>2024-05-19T08:13:44.000Z</time>
      </trkpt>
      <trkpt lat="40.489586" lon="-75.194104">
        <ele>127.254524</ele>
        <time>2024-05-19T08:13:45.000Z</time>
      </trkpt>
      <trkpt lat="40.488674" lon="-75.19509">
        <ele>127.459403</ele>
        <time>2024-05-19T08:13:58.000Z</time>
      </trkpt>
      <trkpt lat="40.486398" lon="-75.197357">
        <ele>128.82658</ele>
        <time>2024-05-19T08:14:30.000Z</time>
      </trkpt>
      <trkpt lat="40.484135" lon="-75.19989">
        <ele>127.43403</ele>
        <time>2024-05-19T08:15:03.000Z</time>
      </trkpt>
      <trkpt lat="40.483366" lon="-75.200759">
        <ele>127.131653</ele>
        <time>2024-05-19T08:15:14.000Z</time>
      </trkpt>
      <trkpt lat="40.482487" lon="-75.20174">
        <ele>127.656616</ele>
        <time>2024-05-19T08:15:27.000Z</time>
      </trkpt>
      <trkpt lat="40.481607" lon="-75.202761">
        <ele>128.003432</ele>
        <time>2024-05-19T08:15:40.000Z</time>
      </trkpt>
      <trkpt lat="40.480628" lon="-75.204069">
        <ele>127.854959</ele>
        <time>2024-05-19T08:15:56.000Z</time>
      </trkpt>
      <trkpt lat="40.47999" lon="-75.205022">
        <ele>127.209129</ele>
        <time>2024-05-19T08:16:07.000Z</time>
      </trkpt>
      <trkpt lat="40.479338" lon="-75.206136">
        <ele>126.146646</ele>
        <time>2024-05-19T08:16:19.000Z</time>
      </trkpt>
      <trkpt lat="40.478601" lon="-75.205396">
        <ele>124.315609</ele>
        <time>2024-05-19T08:16:29.000Z</time>
      </trkpt>
      <trkpt lat="40.477192" lon="-75.206227">
        <ele>122.148234733</ele>
        <time>2024-05-19T08:16:46.000Z</time>
      </trkpt>
      <trkpt lat="40.477037" lon="-75.20661">
        <ele>121.685086171</ele>
        <time>2024-05-19T08:16:50.000Z</time>
      </trkpt>
      <trkpt lat="40.47704" lon="-75.206781">
        <ele>121.502482237</ele>
        <time>2024-05-19T08:16:51.000Z</time>
      </trkpt>
      <trkpt lat="40.476906" lon="-75.207329">
        <ele>120.887965408</ele>
        <time>2024-05-19T08:16:56.000Z</time>
      </trkpt>
      <trkpt lat="40.476917" lon="-75.207342">
        <ele>120.867206038</ele>
        <time>2024-05-19T08:16:56.000Z</time>
      </trkpt>
    </trkseg>
  </trk>
</gpx>

<!--
Performance optimized by W3 Total Cache. Learn more: https://www.boldgrid.com/w3-total-cache/?utm_source=w3tc&utm_medium=footer_comment&utm_campaign=free_plugin

Page Caching using Disk: Enhanced{w3tc_pagecache_reject_reason} 

Served from: www.aquabike.world @ 2026-05-11 01:27:29 by W3 Total Cache
-->